Time;durP1;ratioP1;P1;durP2;ratioP2;P2;SDS_P1;SDS_P2;PMS_P1;PMS_P2;Temp;Humidity;BMP_temperature;BMP_pressure;BME280_temperature;BME280_humidity;BME280_pressure;Samples;Min_cycle;Max_cycle;Signal;HPM_P1;HPM_P2
2021/07/14 00:01:19;;;;;;;17.05;13.05;;;18.70;81.60;;;;;;5095006;28;20493;-88
2021/07/14 00:03:45;;;;;;;17.57;13.40;;;18.60;81.50;;;;;;5093209;28;20199;-89
2021/07/14 00:06:10;;;;;;;19.03;12.73;;;18.50;81.60;;;;;;5094005;28;20255;-89
2021/07/14 00:08:36;;;;;;;20.63;14.43;;;18.50;81.80;;;;;;5093010;28;20180;-88
2021/07/14 00:11:03;;;;;;;25.90;15.57;;;18.40;81.90;;;;;;5093234;28;20196;-88
2021/07/14 00:13:35;;;;;;;20.10;15.25;;;18.50;82.10;;;;;;5076056;28;20425;-88
2021/07/14 00:24:14;;;;;;;22.20;14.45;;;18.30;82.80;;;;;;5094128;28;20529;-89
2021/07/14 00:26:39;;;;;;;19.97;14.90;;;18.40;82.50;;;;;;5092394;28;20168;-88
2021/07/14 00:29:11;;;;;;;22.90;13.87;;;18.40;82.70;;;;;;5093726;28;20635;-89
2021/07/14 00:31:38;;;;;;;23.55;15.40;;;18.50;82.90;;;;;;5093020;28;20195;-89
2021/07/14 00:34:03;;;;;;;19.65;14.27;;;18.40;82.40;;;;;;5093619;28;20178;-88
2021/07/14 00:36:29;;;;;;;27.00;15.30;;;18.40;82.50;;;;;;5093664;28;20251;-88
2021/07/14 00:38:55;;;;;;;22.50;14.77;;;18.40;82.50;;;;;;5100040;28;20191;-88
2021/07/14 00:41:22;;;;;;;32.27;16.13;;;18.50;82.60;;;;;;5098295;28;20203;-89
2021/07/14 00:43:47;;;;;;;26.20;14.90;;;18.40;82.10;;;;;;5092043;28;20262;-89
2021/07/14 00:46:27;;;;;;;19.53;15.47;;;18.30;82.00;;;;;;5091948;28;20207;-89
2021/07/14 00:48:59;;;;;;;22.73;14.88;;;18.40;82.10;;;;;;5092368;28;20412;-89
2021/07/14 00:51:26;;;;;;;20.95;15.18;;;18.30;82.00;;;;;;5091709;28;20204;-87
2021/07/14 00:53:52;;;;;;;21.10;13.35;;;18.40;82.20;;;;;;5093560;28;20218;-87
2021/07/14 00:56:18;;;;;;;25.42;14.45;;;18.50;82.50;;;;;;5092240;28;20267;-87
2021/07/14 00:58:44;;;;;;;19.48;14.65;;;18.40;82.10;;;;;;5091955;28;20287;-88
2021/07/14 01:01:10;;;;;;;21.17;13.50;;;18.40;81.70;;;;;;5094742;28;20695;-87
2021/07/14 01:04:02;;;;;;;25.10;13.90;;;18.30;81.60;;;;;;5096119;28;20176;-89
2021/07/14 01:06:48;;;;;;;20.58;12.25;;;18.40;81.60;;;;;;5077250;28;20175;-88
2021/07/14 01:09:17;;;;;;;20.70;14.82;;;18.40;81.60;;;;;;5096115;28;20250;-88
2021/07/14 01:11:46;;;;;;;18.10;12.23;;;18.50;81.40;;;;;;5095490;28;20678;-88
2021/07/14 01:14:23;;;;;;;22.67;13.45;;;18.50;81.20;;;;;;5095933;28;20219;-88
2021/07/14 01:17:05;;;;;;;20.95;14.05;;;18.50;82.10;;;;;;5096378;28;20602;-88
2021/07/14 01:20:05;;;;;;;21.05;14.05;;;18.50;81.90;;;;;;5096140;28;20235;-88
2021/07/14 01:22:36;;;;;;;25.42;13.10;;;18.20;81.60;;;;;;5095779;28;20219;-88
2021/07/14 01:25:08;;;;;;;16.45;12.70;;;18.20;81.90;;;;;;5097182;28;20195;-88
2021/07/14 01:27:37;;;;;;;20.75;13.13;;;18.20;82.50;;;;;;5097120;28;20168;-88
2021/07/14 01:30:08;;;;;;;20.55;13.70;;;18.30;82.50;;;;;;5107586;28;20164;-87
2021/07/14 01:32:35;;;;;;;24.75;16.50;;;18.40;82.20;;;;;;5119416;28;20252;-87
2021/07/14 01:35:06;;;;;;;19.38;14.52;;;18.30;82.00;;;;;;5111055;28;20180;-87
2021/07/14 01:37:34;;;;;;;25.38;15.45;;;18.20;82.20;;;;;;5099202;28;20243;-87
2021/07/14 01:40:03;;;;;;;25.75;15.60;;;18.20;82.80;;;;;;5099705;28;20205;-87
2021/07/14 01:42:30;;;;;;;25.98;15.27;;;18.20;82.90;;;;;;5097619;28;20188;-87
2021/07/14 01:44:58;;;;;;;29.90;18.02;;;18.20;83.40;;;;;;5099091;28;20176;-87
2021/07/14 01:47:26;;;;;;;30.13;17.20;;;18.10;84.20;;;;;;5099022;28;20172;-88
2021/07/14 01:49:54;;;;;;;30.33;16.92;;;18.20;83.30;;;;;;5099513;28;20185;-87
2021/07/14 01:52:22;;;;;;;26.48;15.95;;;18.10;83.40;;;;;;5098342;28;20218;-88
2021/07/14 01:54:49;;;;;;;23.88;15.32;;;18.10;83.80;;;;;;5098179;28;20179;-87
2021/07/14 01:57:18;;;;;;;25.38;17.17;;;18.20;83.60;;;;;;5091642;28;20180;-88
2021/07/14 01:59:45;;;;;;;28.77;15.60;;;18.20;83.80;;;;;;5075438;28;20216;-88
2021/07/14 02:02:14;;;;;;;30.17;16.48;;;18.20;84.50;;;;;;5074699;28;20196;-88
2021/07/14 02:04:41;;;;;;;28.45;15.52;;;18.40;84.20;;;;;;5074485;28;20176;-88
2021/07/14 02:07:10;;;;;;;31.45;16.63;;;18.40;83.80;;;;;;5074456;28;20176;-88
2021/07/14 02:09:42;;;;;;;27.60;15.80;;;18.20;83.70;;;;;;5074138;28;20195;-88
2021/07/14 02:12:15;;;;;;;34.13;16.85;;;18.20;84.30;;;;;;5072953;28;20291;-88
2021/07/14 02:14:56;;;;;;;35.28;17.48;;;18.20;84.40;;;;;;5074234;28;20192;-88
2021/07/14 02:17:25;;;;;;;32.90;17.08;;;18.20;84.70;;;;;;5077368;28;20598;-88
2021/07/14 02:20:09;;;;;;;28.83;17.70;;;18.20;84.90;;;;;;5074270;28;20212;-87
2021/07/14 02:22:35;;;;;;;32.85;18.63;;;18.30;84.90;;;;;;5073709;28;20192;-88
2021/07/14 02:25:03;;;;;;;33.57;18.33;;;18.30;85.10;;;;;;5073778;28;20666;-88
2021/07/14 02:27:28;;;;;;;37.05;19.98;;;18.40;84.90;;;;;;5074211;28;20215;-88
2021/07/14 02:29:54;;;;;;;31.93;17.20;;;18.40;84.70;;;;;;5080491;28;20184;-89
2021/07/14 02:32:22;;;;;;;31.47;18.03;;;18.40;84.80;;;;;;5076688;28;20208;-88
2021/07/14 02:34:53;;;;;;;37.83;20.50;;;18.40;85.00;;;;;;5080954;28;20187;-89
2021/07/14 02:37:42;;;;;;;31.85;20.20;;;18.30;85.60;;;;;;5094925;28;20168;-88
2021/07/14 02:40:10;;;;;;;28.83;19.10;;;18.20;85.80;;;;;;5093966;28;20195;-88
2021/07/14 02:42:37;;;;;;;35.08;20.70;;;18.30;85.70;;;;;;5093114;28;20206;-89
2021/07/14 02:45:05;;;;;;;34.38;18.75;;;18.30;86.00;;;;;;5094585;28;20175;-88
2021/07/14 02:47:41;;;;;;;33.60;19.05;;;18.30;86.10;;;;;;5093213;28;20172;-89
2021/07/14 02:50:20;;;;;;;38.85;18.48;;;18.40;86.20;;;;;;5093423;28;20175;-89
2021/07/14 02:52:50;;;;;;;32.90;18.45;;;18.30;86.00;;;;;;5093482;28;20203;-89
2021/07/14 02:55:20;;;;;;;28.88;18.38;;;18.40;86.10;;;;;;5093187;28;20172;-88
2021/07/14 02:57:55;;;;;;;38.83;20.67;;;18.60;85.80;;;;;;5093450;28;20188;-89
2021/07/14 03:00:22;;;;;;;30.48;17.50;;;18.40;85.70;;;;;;5092809;28;20217;-88
2021/07/14 03:02:49;;;;;;;38.88;18.95;;;18.60;85.90;;;;;;5093273;28;20195;-88
2021/07/14 03:05:15;;;;;;;38.28;21.35;;;18.50;86.30;;;;;;5093036;28;20179;-89
2021/07/14 03:07:43;;;;;;;39.65;22.42;;;18.40;86.30;;;;;;5094438;28;20172;-88
2021/07/14 03:10:10;;;;;;;39.35;19.60;;;18.30;86.40;;;;;;5093329;28;20272;-89
2021/07/14 03:12:36;;;;;;;47.60;21.10;;;18.30;86.70;;;;;;5099796;28;20231;-88
2021/07/14 03:15:06;;;;;;;37.45;21.50;;;18.40;87.00;;;;;;5092967;28;20714;-88
2021/07/14 03:17:33;;;;;;;39.75;21.75;;;18.40;86.90;;;;;;5093303;28;20592;-88
2021/07/14 03:20:03;;;;;;;41.47;22.50;;;18.40;87.70;;;;;;5092642;28;20223;-89
2021/07/14 03:22:30;;;;;;;40.20;21.55;;;18.20;87.10;;;;;;5092497;28;20286;-89
2021/07/14 03:24:57;;;;;;;46.78;24.10;;;18.40;87.60;;;;;;5098386;28;20168;-88
2021/07/14 03:27:24;;;;;;;49.03;23.85;;;18.30;87.60;;;;;;5099016;28;20180;-88
2021/07/14 03:29:51;;;;;;;59.17;25.25;;;18.30;87.70;;;;;;5092878;28;20567;-88
2021/07/14 03:32:18;;;;;;;41.28;22.85;;;18.30;87.70;;;;;;5092567;28;20210;-88
2021/07/14 03:34:44;;;;;;;46.85;25.58;;;18.30;88.00;;;;;;5093885;28;20183;-88
2021/07/14 03:37:10;;;;;;;46.90;24.60;;;18.30;88.10;;;;;;5092607;28;20270;-88
2021/07/14 03:39:40;;;;;;;52.97;27.25;;;18.40;88.00;;;;;;5093048;28;20460;-89
2021/07/14 03:42:14;;;;;;;52.80;25.30;;;18.40;88.10;;;;;;5093641;28;20248;-88
2021/07/14 03:44:41;;;;;;;45.53;25.85;;;18.50;87.80;;;;;;5093415;28;20179;-88
2021/07/14 03:47:07;;;;;;;45.90;26.77;;;18.50;87.60;;;;;;5093786;28;20187;-88
2021/07/14 03:49:34;;;;;;;51.80;24.87;;;18.60;87.50;;;;;;5092463;28;20171;-88
2021/07/14 03:52:01;;;;;;;45.75;23.58;;;18.70;87.20;;;;;;5092347;28;20434;-88
2021/07/14 03:54:31;;;;;;;47.65;24.40;;;18.60;87.00;;;;;;5096684;28;20168;-88
2021/07/14 03:56:58;;;;;;;42.58;24.90;;;18.40;87.40;;;;;;5094137;28;20176;-88
2021/07/14 03:59:24;;;;;;;57.03;25.33;;;18.40;87.70;;;;;;5093426;28;20310;-88
2021/07/14 04:01:51;;;;;;;46.83;25.23;;;18.30;88.20;;;;;;5094771;28;20693;-88
2021/07/14 04:04:17;;;;;;;43.15;23.25;;;18.30;88.30;;;;;;5093984;28;20201;-88
2021/07/14 04:06:47;;;;;;;38.30;22.90;;;18.20;88.70;;;;;;5093181;28;20172;-88
2021/07/14 04:09:22;;;;;;;51.60;26.08;;;18.20;88.90;;;;;;5094429;28;20390;-88
2021/07/14 04:11:55;;;;;;;47.00;23.45;;;18.30;89.00;;;;;;5092480;28;20203;-88
2021/07/14 04:14:21;;;;;;;53.10;25.25;;;18.30;89.00;;;;;;5093803;28;20186;-88
2021/07/14 04:16:47;;;;;;;40.30;21.33;;;18.40;88.90;;;;;;5092468;28;20563;-88
2021/07/14 04:19:13;;;;;;;57.30;26.80;;;18.40;88.70;;;;;;5093215;28;20282;-88
2021/07/14 04:21:39;;;;;;;51.75;23.17;;;18.40;88.80;;;;;;5104635;28;20212;-87
2021/07/14 04:24:06;;;;;;;48.57;23.10;;;18.30;88.90;;;;;;5093842;28;20198;-87
2021/07/14 04:26:32;;;;;;;44.25;26.33;;;18.40;88.80;;;;;;5093668;28;20847;-88
2021/07/14 04:28:58;;;;;;;50.95;23.50;;;18.20;89.10;;;;;;5092218;28;20588;-87
2021/07/14 04:31:23;;;;;;;49.83;23.67;;;18.30;89.50;;;;;;5091799;28;20203;-88
2021/07/14 04:33:49;;;;;;;44.73;24.57;;;18.30;89.50;;;;;;5092508;28;20176;-87
2021/07/14 04:36:15;;;;;;;41.30;22.30;;;18.30;89.50;;;;;;5094427;28;20168;-88
2021/07/14 04:38:40;;;;;;;47.90;23.10;;;18.40;89.40;;;;;;5096153;28;20254;-87
2021/07/14 04:41:07;;;;;;;48.83;25.47;;;18.40;89.30;;;;;;5097590;28;20279;-87
2021/07/14 04:43:32;;;;;;;47.97;26.30;;;18.40;89.00;;;;;;5096765;28;20211;-88
2021/07/14 04:45:58;;;;;;;59.10;25.50;;;18.30;88.90;;;;;;5097390;28;20175;-88
2021/07/14 04:48:27;;;;;;;49.08;26.95;;;18.40;88.90;;;;;;5097610;28;20295;-88
2021/07/14 04:50:53;;;;;;;52.40;24.65;;;18.30;89.00;;;;;;5099280;28;20227;-87
2021/07/14 04:53:19;;;;;;;41.10;23.10;;;18.30;88.80;;;;;;5097312;28;20217;-87
2021/07/14 04:55:45;;;;;;;52.57;26.20;;;18.40;88.60;;;;;;5096847;28;20168;-87
2021/07/14 04:58:11;;;;;;;48.97;25.83;;;18.50;88.50;;;;;;5096271;28;20176;-88
2021/07/14 05:00:37;;;;;;;43.13;23.88;;;18.50;88.30;;;;;;5095775;28;20560;-87
2021/07/14 05:03:03;;;;;;;42.63;24.10;;;18.40;88.30;;;;;;5095909;28;20195;-88
2021/07/14 05:05:29;;;;;;;45.15;26.50;;;18.30;88.70;;;;;;5096100;28;20349;-88
2021/07/14 05:07:54;;;;;;;45.43;24.93;;;18.40;88.80;;;;;;5096285;28;20190;-87
2021/07/14 05:10:23;;;;;;;45.23;22.00;;;18.40;88.90;;;;;;5095318;28;20188;-88
2021/07/14 05:12:49;;;;;;;43.05;23.75;;;18.40;89.10;;;;;;5097515;28;20302;-87
2021/07/14 05:15:15;;;;;;;42.13;21.60;;;18.40;89.10;;;;;;5104683;28;20213;-87
2021/07/14 05:17:40;;;;;;;32.60;21.10;;;18.40;89.00;;;;;;5101094;28;20764;-87
2021/07/14 05:20:07;;;;;;;44.70;23.40;;;18.30;89.30;;;;;;5096360;28;20761;-87
2021/07/14 05:22:33;;;;;;;41.15;23.67;;;18.40;89.40;;;;;;5096798;28;20191;-87
2021/07/14 05:24:59;;;;;;;43.13;22.57;;;18.40;89.60;;;;;;5096323;28;20250;-87
2021/07/14 05:27:25;;;;;;;40.97;23.58;;;18.30;89.70;;;;;;5096239;28;20619;-87
2021/07/14 05:29:51;;;;;;;42.20;22.07;;;18.30;89.80;;;;;;5098911;28;20172;-87
2021/07/14 05:32:17;;;;;;;48.73;23.13;;;18.30;90.10;;;;;;5097661;28;20241;-88
2021/07/14 05:34:43;;;;;;;39.40;22.33;;;18.30;90.10;;;;;;5095663;28;20443;-88
2021/07/14 05:37:09;;;;;;;58.22;26.40;;;18.40;89.90;;;;;;5085963;28;20180;-88
2021/07/14 05:39:35;;;;;;;46.90;24.27;;;18.40;89.70;;;;;;5075754;28;20648;-88
2021/07/14 05:42:02;;;;;;;42.70;23.67;;;18.40;89.60;;;;;;5074461;28;20196;-88
2021/07/14 05:44:28;;;;;;;45.30;24.67;;;18.40;89.60;;;;;;5074837;28;20415;-88
2021/07/14 05:46:54;;;;;;;46.50;25.50;;;18.50;89.40;;;;;;5074915;28;20187;-87
2021/07/14 05:49:19;;;;;;;56.23;24.87;;;18.50;89.20;;;;;;5074967;28;20223;-88
2021/07/14 05:51:45;;;;;;;40.33;24.20;;;18.50;89.00;;;;;;5075884;28;20711;-87
2021/07/14 05:54:11;;;;;;;48.77;28.00;;;18.50;89.00;;;;;;5075116;28;20188;-87
2021/07/14 05:56:36;;;;;;;52.90;30.23;;;18.60;88.80;;;;;;5095120;28;20179;-87
2021/07/14 05:59:02;;;;;;;57.27;30.20;;;18.60;88.70;;;;;;5083879;28;20671;-87
2021/07/14 06:01:28;;;;;;;44.83;26.37;;;18.50;88.60;;;;;;5074674;28;20199;-88
2021/07/14 06:03:54;;;;;;;44.73;24.60;;;18.40;88.70;;;;;;5076173;28;20172;-88
2021/07/14 06:06:19;;;;;;;49.67;26.37;;;18.30;88.80;;;;;;5074433;28;20418;-88
2021/07/14 06:08:46;;;;;;;52.80;28.20;;;18.30;88.90;;;;;;5074437;28;20179;-88
2021/07/14 06:11:11;;;;;;;43.58;24.48;;;18.50;88.90;;;;;;5086411;28;20201;-88
2021/07/14 06:13:37;;;;;;;44.23;24.77;;;18.40;89.00;;;;;;5077299;28;20260;-88
2021/07/14 06:16:03;;;;;;;42.70;24.95;;;18.30;89.20;;;;;;5074131;28;20189;-88
2021/07/14 06:18:29;;;;;;;41.80;23.90;;;18.50;89.30;;;;;;5075399;28;20184;-88
2021/07/14 06:20:55;;;;;;;40.90;24.80;;;18.40;89.20;;;;;;5073954;28;20411;-88
2021/07/14 06:23:21;;;;;;;40.10;23.50;;;18.40;89.30;;;;;;5074232;28;20643;-88
2021/07/14 06:25:46;;;;;;;39.93;23.40;;;18.40;89.60;;;;;;5075404;28;20410;-88
2021/07/14 06:28:15;;;;;;;46.27;23.67;;;18.40;90.00;;;;;;5075402;28;20625;-88
2021/07/14 06:30:43;;;;;;;38.55;22.35;;;18.50;90.20;;;;;;5073536;28;20176;-88
2021/07/14 06:33:09;;;;;;;39.50;22.23;;;18.40;90.10;;;;;;5074527;28;20180;-88
2021/07/14 06:35:35;;;;;;;50.35;23.33;;;18.40;90.00;;;;;;5074478;28;20263;-88
2021/07/14 06:38:01;;;;;;;45.63;24.30;;;18.30;90.20;;;;;;5074105;28;20185;-88
2021/07/14 06:40:27;;;;;;;50.70;23.47;;;18.30;90.50;;;;;;5073807;28;20689;-88
2021/07/14 06:42:53;;;;;;;49.17;23.57;;;18.30;90.40;;;;;;5074528;28;20466;-88
2021/07/14 06:45:21;;;;;;;54.83;26.00;;;18.30;90.40;;;;;;5073751;28;20456;-88
2021/07/14 06:47:47;;;;;;;59.42;26.55;;;18.30;90.30;;;;;;5080173;28;20203;-88
2021/07/14 06:50:14;;;;;;;45.47;24.67;;;18.30;90.10;;;;;;5093882;28;20187;-88
2021/07/14 06:52:41;;;;;;;44.80;27.98;;;18.30;90.00;;;;;;5094997;28;20935;-88
2021/07/14 06:55:09;;;;;;;45.60;26.85;;;18.40;89.80;;;;;;5093879;28;20184;-88
2021/07/14 06:57:35;;;;;;;46.72;27.30;;;18.50;89.70;;;;;;5093894;28;20176;-88
2021/07/14 07:00:03;;;;;;;40.50;24.48;;;18.60;89.10;;;;;;5093233;28;20196;-88
2021/07/14 07:02:28;;;;;;;47.38;23.20;;;18.60;88.70;;;;;;5093495;28;20561;-88
2021/07/14 07:04:54;;;;;;;46.30;25.17;;;18.60;88.70;;;;;;5094092;28;20172;-90
2021/07/14 07:07:20;;;;;;;41.80;24.33;;;18.60;88.50;;;;;;5104541;28;20179;-89
2021/07/14 07:09:46;;;;;;;40.27;24.20;;;18.60;88.60;;;;;;5093544;28;20190;-89
2021/07/14 07:12:12;;;;;;;52.63;27.02;;;18.50;88.90;;;;;;5092800;28;20731;-89
2021/07/14 07:14:38;;;;;;;41.73;24.90;;;18.40;89.10;;;;;;5093837;28;20195;-89
2021/07/14 07:17:04;;;;;;;45.92;25.42;;;18.30;89.40;;;;;;5094689;28;20168;-90
2021/07/14 07:19:30;;;;;;;40.10;24.43;;;18.30;89.50;;;;;;5095000;28;20207;-89
2021/07/14 07:21:55;;;;;;;46.67;24.70;;;18.40;89.40;;;;;;5093188;28;20827;-89
2021/07/14 07:24:21;;;;;;;51.53;24.60;;;18.40;89.20;;;;;;5094104;28;20187;-89
2021/07/14 07:26:47;;;;;;;42.13;24.60;;;18.40;89.10;;;;;;5094055;28;20182;-89
2021/07/14 07:29:14;;;;;;;35.47;23.85;;;18.30;89.20;;;;;;5094601;28;20180;-89
2021/07/14 07:31:40;;;;;;;41.75;24.90;;;18.20;90.00;;;;;;5095273;28;20213;-89
2021/07/14 07:34:06;;;;;;;38.92;22.85;;;18.20;89.60;;;;;;5093794;28;20176;-89
2021/07/14 07:36:32;;;;;;;36.90;21.37;;;18.20;89.40;;;;;;5093814;28;20186;-87
2021/07/14 07:38:58;;;;;;;42.77;25.33;;;18.20;89.30;;;;;;5095016;28;21038;-88
2021/07/14 07:41:25;;;;;;;32.53;22.75;;;18.30;89.20;;;;;;5093612;28;20425;-88
2021/07/14 07:43:52;;;;;;;37.53;21.42;;;18.30;88.80;;;;;;5093854;28;20205;-88
2021/07/14 07:46:18;;;;;;;32.95;21.60;;;18.30;88.50;;;;;;5093636;28;20255;-88
2021/07/14 07:48:44;;;;;;;33.22;21.25;;;18.30;88.30;;;;;;5093533;28;20184;-87
2021/07/14 07:51:11;;;;;;;33.37;22.07;;;18.40;87.50;;;;;;5093322;28;20743;-87
2021/07/14 07:53:38;;;;;;;38.58;22.75;;;18.20;87.60;;;;;;5093779;28;20744;-87
2021/07/14 07:56:04;;;;;;;36.83;23.00;;;18.30;87.70;;;;;;5093321;28;20180;-87
2021/07/14 07:58:30;;;;;;;38.28;23.33;;;18.30;87.60;;;;;;5093514;28;20255;-88
2021/07/14 08:00:57;;;;;;;37.33;23.20;;;18.60;87.30;;;;;;5099410;28;20236;-88
2021/07/14 08:03:22;;;;;;;33.78;19.15;;;18.60;87.20;;;;;;5097784;28;20414;-88
2021/07/14 08:05:48;;;;;;;28.93;17.60;;;18.50;87.00;;;;;;5093344;28;20681;-88
2021/07/14 08:08:16;;;;;;;31.87;16.97;;;18.40;87.10;;;;;;5093054;28;20820;-88
2021/07/14 08:10:42;;;;;;;26.38;17.63;;;18.30;87.40;;;;;;5094529;28;20186;-88
2021/07/14 08:13:08;;;;;;;30.55;21.02;;;18.30;87.80;;;;;;5099691;28;20187;-88
2021/07/14 08:15:34;;;;;;;36.87;22.10;;;18.20;87.80;;;;;;5097447;28;20187;-88
2021/07/14 08:18:00;;;;;;;33.73;20.10;;;18.20;88.00;;;;;;5097430;28;20217;-88
2021/07/14 08:20:26;;;;;;;36.03;23.03;;;18.00;88.20;;;;;;5097501;28;20456;-88
2021/07/14 08:22:53;;;;;;;37.73;23.23;;;18.10;88.60;;;;;;5098649;28;20501;-88
2021/07/14 08:25:18;;;;;;;37.25;24.23;;;18.00;88.40;;;;;;5097155;28;20495;-88
2021/07/14 08:27:44;;;;;;;33.70;21.50;;;18.00;88.50;;;;;;5097288;28;20643;-88
2021/07/14 08:30:13;;;;;;;30.85;22.90;;;18.00;88.60;;;;;;5096967;28;20176;-88
2021/07/14 08:32:39;;;;;;;31.60;21.80;;;18.00;88.50;;;;;;5096157;28;20286;-88
2021/07/14 08:35:07;;;;;;;40.97;23.10;;;18.10;88.40;;;;;;5096781;28;20279;-89
2021/07/14 08:37:34;;;;;;;31.30;21.60;;;18.20;88.10;;;;;;5096424;28;20228;-88
2021/07/14 08:40:00;;;;;;;31.98;21.83;;;18.30;87.30;;;;;;5096781;28;20207;-88
2021/07/14 08:42:26;;;;;;;31.13;20.10;;;18.30;86.60;;;;;;5097640;28;20249;-88
2021/07/14 08:44:53;;;;;;;34.38;22.55;;;18.30;87.00;;;;;;5096808;28;20243;-88
2021/07/14 08:47:20;;;;;;;27.05;20.10;;;18.30;87.10;;;;;;5096880;28;20657;-88
2021/07/14 08:49:49;;;;;;;24.67;18.58;;;18.30;87.00;;;;;;5097580;28;20188;-88
2021/07/14 08:52:16;;;;;;;37.83;20.10;;;18.30;86.80;;;;;;5097727;28;20298;-88
2021/07/14 08:54:43;;;;;;;30.63;20.05;;;18.30;87.00;;;;;;5098670;28;20534;-88
2021/07/14 08:57:10;;;;;;;32.08;20.42;;;18.40;87.10;;;;;;5108037;28;20205;-88
2021/07/14 08:59:36;;;;;;;30.95;21.23;;;18.30;86.90;;;;;;5097228;28;20682;-88
2021/07/14 09:02:02;;;;;;;34.88;21.23;;;18.30;86.70;;;;;;5098685;28;20191;-88
2021/07/14 09:04:28;;;;;;;26.70;18.27;;;18.30;86.80;;;;;;5099821;28;20217;-89
2021/07/14 09:06:54;;;;;;;26.73;20.20;;;18.40;86.50;;;;;;5095940;28;20237;-89
2021/07/14 09:09:20;;;;;;;22.80;17.80;;;18.40;86.00;;;;;;5095891;28;20183;-89
2021/07/14 09:11:56;;;;;;;28.57;20.83;;;18.40;86.00;;;;;;5095882;28;20449;-88
2021/07/14 09:14:38;;;;;;;26.65;18.00;;;18.30;86.20;;;;;;5096886;28;20398;-88
2021/07/14 09:17:23;;;;;;;35.63;20.98;;;18.40;85.90;;;;;;5099322;28;20164;-88
2021/07/14 09:19:59;;;;;;;30.10;19.20;;;18.40;86.10;;;;;;5100195;28;20199;-88
2021/07/14 09:22:30;;;;;;;29.25;18.75;;;18.40;86.10;;;;;;5098418;28;20305;-89
2021/07/14 09:24:56;;;;;;;24.75;17.65;;;18.50;85.60;;;;;;5096804;28;20172;-88
2021/07/14 09:27:35;;;;;;;21.15;16.38;;;18.50;85.20;;;;;;5097393;28;20172;-88
2021/07/14 09:30:15;;;;;;;22.35;15.82;;;18.60;85.10;;;;;;5096881;28;20179;-89
2021/07/14 09:32:50;;;;;;;22.10;16.55;;;18.60;84.70;;;;;;5098070;28;20298;-88
2021/07/14 09:35:32;;;;;;;25.00;16.75;;;18.50;84.70;;;;;;5095682;28;20171;-88
2021/07/14 09:38:01;;;;;;;31.10;17.90;;;18.60;84.80;;;;;;5097934;28;20199;-89
2021/07/14 09:40:27;;;;;;;22.67;16.40;;;18.50;84.50;;;;;;5099682;28;20599;-88
2021/07/14 09:43:04;;;;;;;26.60;17.05;;;18.50;84.70;;;;;;5095720;28;20249;-87
2021/07/14 09:45:46;;;;;;;27.58;18.08;;;18.50;85.00;;;;;;5095834;28;20225;-90
2021/07/14 09:48:19;;;;;;;25.02;16.85;;;18.60;84.70;;;;;;5098592;28;20196;-89
2021/07/14 09:50:49;;;;;;;27.35;18.58;;;18.40;85.70;;;;;;5099009;28;20218;-90
2021/07/14 09:53:19;;;;;;;24.90;17.35;;;18.30;86.80;;;;;;5111238;28;20176;-89
2021/07/14 09:55:49;;;;;;;24.52;18.13;;;18.40;87.20;;;;;;5099098;28;20662;-90
2021/07/14 09:58:24;;;;;;;28.95;17.30;;;18.40;87.50;;;;;;5096974;28;20190;-90
2021/07/14 10:00:55;;;;;;;28.98;20.08;;;18.40;87.60;;;;;;5096907;28;20179;-89
2021/07/14 10:03:24;;;;;;;23.20;17.70;;;18.50;87.30;;;;;;5095714;28;20180;-90
2021/07/14 10:05:58;;;;;;;30.13;17.90;;;18.40;86.90;;;;;;5096228;28;20171;-90
2021/07/14 10:08:24;;;;;;;24.63;19.45;;;18.30;86.40;;;;;;5098961;28;20163;-89
2021/07/14 10:10:51;;;;;;;24.73;16.60;;;18.40;86.40;;;;;;5096199;28;20195;-89
2021/07/14 10:13:21;;;;;;;22.27;16.35;;;18.50;86.30;;;;;;5096724;28;20172;-89
2021/07/14 10:15:59;;;;;;;25.60;16.45;;;18.70;86.00;;;;;;5095212;28;20222;-89
2021/07/14 10:18:24;;;;;;;25.52;18.25;;;18.80;85.50;;;;;;5094686;28;20382;-89
2021/07/14 10:20:51;;;;;;;23.00;17.77;;;18.70;85.50;;;;;;5095908;28;20302;-89
2021/07/14 10:23:17;;;;;;;22.42;16.55;;;18.70;85.80;;;;;;5094938;28;20600;-89
2021/07/14 10:25:44;;;;;;;20.30;15.15;;;18.70;85.90;;;;;;5074354;28;20208;-89
2021/07/14 10:28:12;;;;;;;20.85;15.32;;;18.80;85.20;;;;;;5074729;28;20180;-89
2021/07/14 10:30:40;;;;;;;25.50;15.35;;;18.70;85.00;;;;;;5074050;28;20281;-89
2021/07/14 10:33:11;;;;;;;17.30;13.13;;;18.70;84.90;;;;;;5073772;28;20259;-89
2021/07/14 10:35:42;;;;;;;17.42;13.43;;;18.70;84.60;;;;;;5075652;28;20172;-89
2021/07/14 10:38:27;;;;;;;14.65;12.95;;;18.70;84.30;;;;;;5074959;28;20240;-88
2021/07/14 10:40:54;;;;;;;13.23;11.10;;;18.80;84.20;;;;;;5074014;28;20192;-89
2021/07/14 10:43:27;;;;;;;14.20;12.80;;;18.90;83.70;;;;;;5074345;28;20639;-89
2021/07/14 10:45:55;;;;;;;15.07;12.18;;;19.00;83.30;;;;;;5074345;28;20184;-89
2021/07/14 10:48:22;;;;;;;18.55;13.75;;;19.10;82.50;;;;;;5087803;28;20168;-89
2021/07/14 10:50:50;;;;;;;13.05;10.80;;;19.30;82.10;;;;;;5075466;28;20226;-89
2021/07/14 10:53:19;;;;;;;12.75;11.18;;;19.20;81.50;;;;;;5074771;28;20221;-89
2021/07/14 10:55:46;;;;;;;14.60;11.55;;;19.20;81.70;;;;;;5077826;28;20179;-89
2021/07/14 10:58:15;;;;;;;23.83;12.77;;;19.30;81.40;;;;;;5076624;28;20247;-89
2021/07/14 11:00:42;;;;;;;14.40;11.40;;;19.40;81.10;;;;;;5076753;28;20204;-89
2021/07/14 11:03:31;;;;;;;13.95;12.43;;;19.70;80.70;;;;;;5075662;28;20211;-89
2021/07/14 11:05:57;;;;;;;18.13;12.40;;;19.70;80.10;;;;;;5076008;28;20173;-89
2021/07/14 11:08:43;;;;;;;16.03;12.93;;;19.80;79.70;;;;;;5074203;28;20177;-89
2021/07/14 11:11:11;;;;;;;15.30;12.27;;;19.80;79.40;;;;;;5077512;28;20453;-89
2021/07/14 11:13:40;;;;;;;18.95;14.85;;;19.60;80.60;;;;;;5080096;28;20246;-88
2021/07/14 11:16:28;;;;;;;16.85;12.80;;;19.50;80.90;;;;;;5081062;28;20226;-89
2021/07/14 11:19:05;;;;;;;18.13;12.25;;;19.50;80.90;;;;;;5085166;28;20204;-89
2021/07/14 11:21:43;;;;;;;15.20;12.52;;;19.50;81.20;;;;;;5090556;28;20235;-88
2021/07/14 11:24:09;;;;;;;14.60;11.55;;;19.50;80.90;;;;;;5099442;28;20163;-89
2021/07/14 11:26:35;;;;;;;16.52;11.95;;;19.60;81.10;;;;;;5116120;28;20172;-89
2021/07/14 11:29:37;;;;;;;14.43;11.60;;;19.60;81.00;;;;;;5110011;28;20187;-89
2021/07/14 11:32:03;;;;;;;15.98;11.00;;;19.50;81.60;;;;;;5114261;28;20226;-89
2021/07/14 11:34:32;;;;;;;18.07;13.03;;;19.40;81.90;;;;;;5113548;28;20183;-89
2021/07/14 11:37:28;;;;;;;16.10;12.57;;;19.60;82.30;;;;;;5116197;28;20418;-89
2021/07/14 11:39:53;;;;;;;13.27;10.98;;;19.40;81.80;;;;;;5116609;28;20207;-89
2021/07/14 11:42:19;;;;;;;17.43;12.47;;;19.50;82.00;;;;;;5116208;28;20294;-89
2021/07/14 11:44:52;;;;;;;16.43;12.67;;;19.20;82.00;;;;;;5117006;28;20164;-88
2021/07/14 11:47:45;;;;;;;15.85;11.55;;;19.20;82.10;;;;;;5116874;28;20413;-89
2021/07/14 11:50:11;;;;;;;18.02;11.50;;;19.30;82.10;;;;;;5117411;28;20211;-89
2021/07/14 11:52:42;;;;;;;14.30;11.65;;;19.30;82.20;;;;;;5116994;28;20247;-89
2021/07/14 11:55:23;;;;;;;13.70;11.23;;;19.30;82.20;;;;;;5110649;28;20207;-89
2021/07/14 11:57:55;;;;;;;13.75;10.30;;;19.20;82.30;;;;;;5102725;28;20535;-89
2021/07/14 12:00:31;;;;;;;16.10;11.00;;;19.20;81.90;;;;;;5101893;28;20235;-89
2021/07/14 12:02:58;;;;;;;16.52;8.95;;;19.40;81.40;;;;;;5094248;28;20240;-89
2021/07/14 12:05:30;;;;;;;11.20;9.38;;;19.50;81.10;;;;;;5093058;28;20658;-89
2021/07/14 12:08:13;;;;;;;11.32;9.23;;;19.40;81.10;;;;;;5092852;28;20189;-89
2021/07/14 12:10:41;;;;;;;17.98;10.13;;;19.40;81.30;;;;;;5092822;28;20228;-89
2021/07/14 12:13:08;;;;;;;12.57;9.90;;;19.50;81.20;;;;;;5092762;28;20176;-89
2021/07/14 12:15:49;;;;;;;10.95;9.75;;;19.60;80.80;;;;;;5092330;28;20206;-89
2021/07/14 12:18:15;;;;;;;17.13;11.70;;;19.50;80.90;;;;;;5093125;28;20209;-90
2021/07/14 12:20:49;;;;;;;15.85;11.73;;;19.50;81.20;;;;;;5093550;28;20619;-89
2021/07/14 12:23:15;;;;;;;15.68;11.52;;;19.40;81.10;;;;;;5092973;28;20259;-89
2021/07/14 12:25:41;;;;;;;13.48;11.05;;;19.30;81.70;;;;;;5092990;28;20172;-89
2021/07/14 12:28:12;;;;;;;17.42;11.50;;;19.40;82.50;;;;;;5092909;28;20206;-90
2021/07/14 12:30:47;;;;;;;20.08;10.60;;;19.40;82.10;;;;;;5094112;28;20218;-89
2021/07/14 12:33:15;;;;;;;13.00;9.90;;;19.40;81.90;;;;;;5093929;28;20175;-89
2021/07/14 12:35:42;;;;;;;13.88;10.35;;;19.50;82.40;;;;;;5094029;28;20179;-89
2021/07/14 12:38:08;;;;;;;13.35;8.38;;;19.50;82.50;;;;;;5104599;28;20175;-89
2021/07/14 12:40:40;;;;;;;13.73;7.60;;;19.50;82.80;;;;;;5099728;28;20279;-89
2021/07/14 12:43:13;;;;;;;9.98;7.85;;;19.30;83.20;;;;;;5094574;28;20199;-89
2021/07/14 12:45:42;;;;;;;19.17;10.73;;;19.30;83.40;;;;;;5093053;28;20179;-89